Time;durP1;ratioP1;P1;durP2;ratioP2;P2;SDS_P1;SDS_P2;PMS_P1;PMS_P2;Temp;Humidity;BMP_temperature;BMP_pressure;BME280_temperature;BME280_humidity;BME280_pressure;Samples;Min_cycle;Max_cycle;Signal;HPM_P1;HPM_P2
2022/04/13 00:02:02;;;;;;;8.38;6.20;;;15.60;99.90;;;;;;5015922;28;20389;-69
2022/04/13 00:04:27;;;;;;;12.07;6.32;;;15.50;99.90;;;;;;5016126;28;20037;-68
2022/04/13 00:06:53;;;;;;;10.15;6.20;;;15.50;99.90;;;;;;5016677;28;20107;-68
2022/04/13 00:09:19;;;;;;;8.95;5.90;;;15.60;99.90;;;;;;5016694;28;20770;-68
2022/04/13 00:11:45;;;;;;;10.07;6.10;;;15.50;99.90;;;;;;5016070;28;20152;-68
2022/04/13 00:14:11;;;;;;;11.07;7.00;;;15.50;99.90;;;;;;5016479;28;20037;-68
2022/04/13 00:16:36;;;;;;;10.02;6.43;;;15.50;99.90;;;;;;5016458;28;20041;-68
2022/04/13 00:19:02;;;;;;;9.98;6.47;;;15.40;99.90;;;;;;5016417;28;20439;-68
2022/04/13 00:21:28;;;;;;;10.75;6.65;;;15.30;99.90;;;;;;5013869;28;20148;-69
2022/04/13 00:23:53;;;;;;;9.38;6.68;;;15.10;99.90;;;;;;5013689;28;20061;-68
2022/04/13 00:26:19;;;;;;;11.35;6.82;;;15.20;99.90;;;;;;5013851;28;20343;-68
2022/04/13 00:28:45;;;;;;;10.63;6.80;;;15.20;99.90;;;;;;4996634;28;20042;-68
2022/04/13 00:31:10;;;;;;;10.43;6.75;;;15.20;99.90;;;;;;4996665;28;20128;-69
2022/04/13 00:33:36;;;;;;;9.55;7.20;;;15.10;99.90;;;;;;4998736;28;20414;-68
2022/04/13 00:36:02;;;;;;;11.32;6.13;;;15.10;99.90;;;;;;5016291;28;20037;-68
2022/04/13 00:38:28;;;;;;;11.23;6.75;;;15.00;99.90;;;;;;5015930;28;20465;-68
2022/04/13 00:40:54;;;;;;;9.25;6.68;;;15.00;99.90;;;;;;5016080;28;20044;-68
2022/04/13 00:43:20;;;;;;;10.93;6.55;;;14.90;99.90;;;;;;5015585;28;20441;-68
2022/04/13 00:45:47;;;;;;;10.50;6.57;;;14.90;99.90;;;;;;4996008;28;20053;-68
2022/04/13 00:48:27;;;;;;;11.93;6.43;;;14.90;99.90;;;;;;4996437;28;20092;-68
2022/04/13 00:50:53;;;;;;;10.38;6.35;;;14.90;99.90;;;;;;4996089;28;20084;-68
2022/04/13 00:53:19;;;;;;;9.77;6.40;;;14.80;99.90;;;;;;5013033;28;20065;-67
2022/04/13 00:55:46;;;;;;;11.07;6.60;;;14.80;99.90;;;;;;5015088;28;20041;-68
2022/04/13 00:58:15;;;;;;;10.75;6.63;;;14.80;99.90;;;;;;5033651;28;20448;-68
2022/04/13 01:00:48;;;;;;;12.40;6.30;;;14.80;99.90;;;;;;5015875;28;20045;-68
2022/04/13 01:03:25;;;;;;;10.30;6.57;;;14.80;99.90;;;;;;4999381;28;20041;-68
2022/04/13 01:05:52;;;;;;;10.15;6.60;;;14.80;99.90;;;;;;4963877;28;20045;-68
2022/04/13 01:08:19;;;;;;;11.50;7.03;;;14.80;99.90;;;;;;4996455;28;20088;-69
2022/04/13 01:10:46;;;;;;;9.25;6.10;;;14.70;99.90;;;;;;4996229;28;20463;-68
2022/04/13 01:13:13;;;;;;;11.68;6.80;;;14.70;99.90;;;;;;5011993;28;20045;-68
2022/04/13 01:15:41;;;;;;;12.77;6.72;;;14.70;99.90;;;;;;5015651;28;20046;-68
2022/04/13 01:18:06;;;;;;;10.25;6.60;;;14.70;99.90;;;;;;5015710;28;20041;-69
2022/04/13 01:20:34;;;;;;;11.93;6.78;;;14.70;99.90;;;;;;5033042;28;20113;-69
2022/04/13 01:23:00;;;;;;;15.43;6.45;;;14.60;99.90;;;;;;5018610;28;20065;-67
2022/04/13 01:25:27;;;;;;;10.73;6.95;;;14.60;99.90;;;;;;4995556;28;20458;-68
2022/04/13 01:27:54;;;;;;;9.93;6.93;;;14.50;99.90;;;;;;5013165;28;20080;-68
2022/04/13 01:30:23;;;;;;;11.93;6.90;;;14.50;99.90;;;;;;4995773;28;20192;-68
2022/04/13 01:32:50;;;;;;;12.52;7.32;;;14.50;99.90;;;;;;5008369;28;20038;-68
2022/04/13 01:35:16;;;;;;;17.83;7.57;;;14.50;99.90;;;;;;5015250;28;20045;-68
2022/04/13 01:37:42;;;;;;;15.32;7.65;;;14.40;99.90;;;;;;5015538;28;20418;-68
2022/04/13 01:40:08;;;;;;;11.43;7.68;;;14.40;99.90;;;;;;5015336;28;20034;-68
2022/04/13 01:42:33;;;;;;;12.75;7.47;;;14.40;99.90;;;;;;5022403;28;20206;-65
2022/04/13 01:45:00;;;;;;;12.15;7.65;;;14.40;99.90;;;;;;4995271;28;20133;-67
2022/04/13 01:47:26;;;;;;;11.95;7.22;;;14.30;99.90;;;;;;4979777;28;20172;-68
2022/04/13 01:49:51;;;;;;;10.95;7.70;;;14.30;99.90;;;;;;4995750;28;20461;-68
2022/04/13 01:52:17;;;;;;;11.80;8.32;;;14.30;99.90;;;;;;5003463;28;20041;-68
2022/04/13 01:54:43;;;;;;;16.45;8.15;;;14.30;99.90;;;;;;5015074;28;20407;-68
2022/04/13 01:57:08;;;;;;;13.13;8.00;;;14.20;99.90;;;;;;5015246;28;20051;-68
2022/04/13 01:59:34;;;;;;;12.00;8.07;;;14.30;99.90;;;;;;5015544;28;20049;-68
2022/04/13 02:02:04;;;;;;;10.90;7.25;;;14.20;99.90;;;;;;5014764;28;20347;-68
2022/04/13 02:04:30;;;;;;;13.70;8.35;;;14.20;99.90;;;;;;5015100;28;20056;-68
2022/04/13 02:06:56;;;;;;;13.27;7.75;;;14.20;99.90;;;;;;5033780;28;20041;-67
2022/04/13 02:09:22;;;;;;;11.82;7.53;;;14.20;99.90;;;;;;5018867;28;20041;-68
2022/04/13 02:11:48;;;;;;;13.77;8.13;;;14.20;99.90;;;;;;5018394;28;20065;-68
2022/04/13 02:14:14;;;;;;;13.05;8.30;;;14.20;99.90;;;;;;5035966;28;20037;-67
2022/04/13 02:16:39;;;;;;;12.02;7.95;;;14.10;99.90;;;;;;5036092;28;20091;-68
2022/04/13 02:19:13;;;;;;;13.80;9.02;;;14.10;99.90;;;;;;5018737;28;20064;-68
2022/04/13 02:21:39;;;;;;;14.07;8.63;;;14.00;99.90;;;;;;5035875;28;20037;-67
2022/04/13 02:24:07;;;;;;;16.13;10.13;;;13.90;99.90;;;;;;5018234;28;20045;-67
2022/04/13 02:26:33;;;;;;;23.48;11.95;;;13.90;99.90;;;;;;5018298;28;20103;-67
2022/04/13 02:28:59;;;;;;;24.30;11.93;;;13.80;99.90;;;;;;5018667;28;20049;-67
2022/04/13 02:31:25;;;;;;;28.75;11.80;;;13.80;99.90;;;;;;5017833;28;20041;-68
2022/04/13 02:33:55;;;;;;;27.08;12.50;;;13.80;99.90;;;;;;5018038;28;20041;-68
2022/04/13 02:36:21;;;;;;;28.42;13.07;;;13.90;99.90;;;;;;5035588;28;20048;-68
2022/04/13 02:38:47;;;;;;;34.00;12.57;;;13.80;99.90;;;;;;5035856;28;20038;-68
2022/04/13 02:41:13;;;;;;;26.17;12.13;;;13.80;99.90;;;;;;5018313;28;20419;-68
2022/04/13 02:43:39;;;;;;;21.17;12.05;;;13.80;99.90;;;;;;4998616;28;20061;-67
2022/04/13 02:46:05;;;;;;;18.33;11.23;;;13.80;99.90;;;;;;4998238;28;20061;-68
2022/04/13 02:48:31;;;;;;;19.38;11.85;;;13.70;99.90;;;;;;4998568;28;20045;-68
2022/04/13 02:50:56;;;;;;;20.75;12.10;;;13.70;99.90;;;;;;4998408;28;20435;-69
2022/04/13 02:53:23;;;;;;;22.35;11.73;;;13.70;99.90;;;;;;5014060;28;20354;-69
2022/04/13 02:55:51;;;;;;;23.80;11.63;;;13.60;99.90;;;;;;5018183;28;20037;-68
2022/04/13 02:58:17;;;;;;;20.67;12.07;;;13.60;99.90;;;;;;5017786;28;20037;-68
2022/04/13 03:00:42;;;;;;;16.73;11.20;;;13.60;99.90;;;;;;5017731;28;20094;-68
2022/04/13 03:03:08;;;;;;;16.75;10.80;;;13.60;99.90;;;;;;5017210;28;20060;-69
2022/04/13 03:05:34;;;;;;;17.75;11.27;;;13.50;99.90;;;;;;5034773;28;20196;-69
2022/04/13 03:07:59;;;;;;;17.75;10.90;;;13.60;99.90;;;;;;5017682;28;20455;-69
2022/04/13 03:10:25;;;;;;;20.73;12.23;;;13.50;99.90;;;;;;5034973;28;20046;-69
2022/04/13 03:12:51;;;;;;;15.43;11.07;;;13.50;99.90;;;;;;5017533;28;20041;-69
2022/04/13 03:15:22;;;;;;;18.88;11.20;;;13.50;99.90;;;;;;5017493;28;20107;-68
2022/04/13 03:17:48;;;;;;;19.65;11.43;;;13.40;99.90;;;;;;5034923;28;20053;-68
2022/04/13 03:20:14;;;;;;;19.98;11.65;;;13.40;99.90;;;;;;5016884;28;20041;-69
2022/04/13 03:22:39;;;;;;;16.50;11.43;;;13.40;99.90;;;;;;5006730;28;20030;-68
2022/04/13 03:25:05;;;;;;;19.60;11.68;;;13.40;99.90;;;;;;4997637;28;20276;-68
2022/04/13 03:27:32;;;;;;;18.08;12.65;;;13.30;99.90;;;;;;4997605;28;20051;-68
2022/04/13 03:29:57;;;;;;;18.88;12.52;;;13.30;99.90;;;;;;4997916;28;20038;-69
2022/04/13 03:32:23;;;;;;;17.95;11.88;;;13.30;99.90;;;;;;5005268;28;20041;-68
2022/04/13 03:34:49;;;;;;;20.45;12.57;;;13.30;99.90;;;;;;5016877;28;20472;-68
2022/04/13 03:37:16;;;;;;;18.98;12.80;;;13.30;99.90;;;;;;5017450;28;20141;-68
2022/04/13 03:39:41;;;;;;;19.52;12.70;;;13.30;99.90;;;;;;5017440;28;20128;-68
2022/04/13 03:42:07;;;;;;;18.42;12.93;;;13.20;99.90;;;;;;5016826;28;20513;-69
2022/04/13 03:44:33;;;;;;;22.25;13.70;;;13.10;99.90;;;;;;5016456;28;20064;-68
2022/04/13 03:46:59;;;;;;;20.50;13.95;;;13.00;99.90;;;;;;5017008;28;20041;-68
2022/04/13 03:49:24;;;;;;;20.10;13.82;;;12.90;99.90;;;;;;5017109;28;20560;-68
2022/04/13 03:51:50;;;;;;;20.10;13.18;;;12.80;99.90;;;;;;5033828;28;20473;-68
2022/04/13 03:54:16;;;;;;;17.35;13.55;;;12.80;99.90;;;;;;5033971;28;20465;-68
2022/04/13 03:56:41;;;;;;;19.00;12.80;;;12.80;99.90;;;;;;5017031;28;20045;-69
2022/04/13 03:59:07;;;;;;;23.58;13.43;;;12.80;99.90;;;;;;5016831;28;20041;-69
2022/04/13 04:01:33;;;;;;;19.23;13.23;;;12.80;99.90;;;;;;5016301;28;20068;-68
2022/04/13 04:03:59;;;;;;;20.85;13.75;;;12.80;99.90;;;;;;5016905;28;20132;-68
2022/04/13 04:06:25;;;;;;;23.35;13.93;;;12.80;99.90;;;;;;5016597;28;20128;-69
2022/04/13 04:08:51;;;;;;;21.55;14.20;;;12.70;99.90;;;;;;5035337;28;20069;-69
2022/04/13 04:11:17;;;;;;;18.90;13.70;;;12.80;99.90;;;;;;5000554;28;20049;-68
2022/04/13 04:13:43;;;;;;;23.20;15.15;;;12.90;99.90;;;;;;5033525;28;20033;-69
2022/04/13 04:16:08;;;;;;;21.40;15.25;;;12.80;99.90;;;;;;5016585;28;20115;-69
2022/04/13 04:18:34;;;;;;;22.27;15.40;;;12.70;99.90;;;;;;5016283;28;20052;-69
2022/04/13 04:21:00;;;;;;;24.55;14.50;;;12.70;99.90;;;;;;5016363;28;20048;-68
2022/04/13 04:23:26;;;;;;;23.73;14.52;;;12.70;99.90;;;;;;4999308;28;20333;-68
2022/04/13 04:25:51;;;;;;;22.58;14.35;;;12.70;99.90;;;;;;5016644;28;20140;-68
2022/04/13 04:28:17;;;;;;;19.35;14.52;;;12.70;99.90;;;;;;5016679;28;20473;-68
2022/04/13 04:30:43;;;;;;;22.23;15.13;;;12.70;99.90;;;;;;5033012;28;20459;-69
2022/04/13 04:33:12;;;;;;;21.95;14.93;;;12.80;99.90;;;;;;5015336;28;20045;-68
2022/04/13 04:35:39;;;;;;;23.65;15.25;;;12.70;99.90;;;;;;5016006;28;20048;-68
2022/04/13 04:38:05;;;;;;;21.45;14.07;;;12.60;99.90;;;;;;5016379;28;20087;-69
2022/04/13 04:40:30;;;;;;;24.45;14.73;;;12.60;99.90;;;;;;5015906;28;20041;-69
2022/04/13 04:42:58;;;;;;;23.85;14.77;;;12.60;99.90;;;;;;5003591;28;20042;-67
2022/04/13 04:45:24;;;;;;;21.13;14.13;;;12.60;99.90;;;;;;4995838;28;20058;-69
2022/04/13 04:47:50;;;;;;;22.13;14.98;;;12.60;99.90;;;;;;5013522;28;20041;-68
2022/04/13 04:50:17;;;;;;;21.63;14.20;;;12.50;99.90;;;;;;4980055;28;20056;-68
2022/04/13 04:52:44;;;;;;;18.40;13.93;;;12.60;99.90;;;;;;5006192;28;20123;-68
2022/04/13 04:55:11;;;;;;;21.40;14.35;;;12.60;99.90;;;;;;5017014;28;20029;-68
2022/04/13 04:57:38;;;;;;;20.80;14.07;;;12.60;99.90;;;;;;5034185;28;20056;-68
2022/04/13 05:00:08;;;;;;;23.60;13.10;;;12.70;99.90;;;;;;5034099;28;20327;-68
2022/04/13 05:02:35;;;;;;;19.85;12.27;;;12.60;99.90;;;;;;5043771;28;20160;-67
2022/04/13 05:05:02;;;;;;;19.55;12.68;;;12.70;99.90;;;;;;5032519;28;20045;-68
2022/04/13 05:07:27;;;;;;;19.10;12.18;;;12.70;99.90;;;;;;5051181;28;20029;-68
2022/04/13 05:09:53;;;;;;;19.80;12.77;;;12.70;99.90;;;;;;5035078;28;20442;-69
2022/04/13 05:12:19;;;;;;;17.65;11.98;;;12.70;99.90;;;;;;5026749;28;20045;-68
2022/04/13 05:14:44;;;;;;;18.70;11.73;;;12.70;99.90;;;;;;5021123;28;20051;-67
2022/04/13 05:17:10;;;;;;;16.17;11.50;;;12.70;99.90;;;;;;5034542;28;20121;-67
2022/04/13 05:19:36;;;;;;;18.60;11.90;;;12.70;99.90;;;;;;5035559;28;20486;-68
2022/04/13 05:22:02;;;;;;;18.38;12.65;;;12.70;99.90;;;;;;5029661;28;20092;-67
2022/04/13 05:24:28;;;;;;;18.08;11.48;;;12.70;99.90;;;;;;5015208;28;20044;-67
2022/04/13 05:26:53;;;;;;;17.65;11.48;;;12.70;99.90;;;;;;5013730;28;20120;-68
2022/04/13 05:29:21;;;;;;;17.55;11.18;;;12.80;99.90;;;;;;5016290;28;20041;-67
2022/04/13 05:31:47;;;;;;;16.67;11.30;;;12.80;99.90;;;;;;5031691;28;20128;-70
2022/04/13 05:34:13;;;;;;;15.82;11.07;;;12.80;99.90;;;;;;5015823;28;20117;-68
2022/04/13 05:36:38;;;;;;;14.35;9.98;;;12.70;99.90;;;;;;5033630;28;20029;-70
2022/04/13 05:39:04;;;;;;;17.25;11.07;;;12.80;99.90;;;;;;5015999;28;20858;-68
2022/04/13 05:41:30;;;;;;;15.98;10.35;;;12.70;99.90;;;;;;5028937;28;20044;-70
2022/04/13 05:43:56;;;;;;;24.60;12.25;;;12.70;99.90;;;;;;5017801;28;20401;-69
2022/04/13 05:46:21;;;;;;;19.10;11.85;;;12.60;99.90;;;;;;5039400;28;20465;-69
2022/04/13 05:48:47;;;;;;;23.40;14.35;;;12.70;99.90;;;;;;5037713;28;20381;-73
2022/04/13 05:51:13;;;;;;;19.90;13.43;;;12.70;99.90;;;;;;5038509;28;20135;-73
2022/04/13 05:53:39;;;;;;;18.70;11.98;;;12.80;99.90;;;;;;5033240;28;20028;-74
2022/04/13 05:56:05;;;;;;;15.48;10.88;;;12.90;99.90;;;;;;5038656;28;20055;-74
2022/04/13 05:58:31;;;;;;;16.63;10.85;;;13.10;99.90;;;;;;5039321;28;20158;-73
2022/04/13 06:00:57;;;;;;;16.38;10.57;;;13.20;99.90;;;;;;5038500;28;20053;-67
2022/04/13 06:03:23;;;;;;;16.67;9.95;;;13.50;99.90;;;;;;5023117;28;20466;-69
2022/04/13 06:05:50;;;;;;;15.50;10.10;;;13.80;99.90;;;;;;5019053;28;20061;-67
2022/04/13 06:08:16;;;;;;;18.23;10.55;;;14.10;99.90;;;;;;5029039;28;20043;-69
2022/04/13 06:10:43;;;;;;;17.25;10.30;;;14.20;99.90;;;;;;5036844;28;20365;-67
2022/04/13 06:13:10;;;;;;;16.85;10.88;;;14.20;99.90;;;;;;5017256;28;20547;-70
2022/04/13 06:15:38;;;;;;;19.63;10.70;;;14.10;99.90;;;;;;5054777;28;20097;-70
2022/04/13 06:18:05;;;;;;;13.77;9.57;;;14.00;99.90;;;;;;5054476;28;20028;-67
2022/04/13 06:20:32;;;;;;;18.00;9.68;;;13.90;99.90;;;;;;5038807;28;20076;-67
2022/04/13 06:22:58;;;;;;;17.52;9.90;;;13.90;99.90;;;;;;5026025;28;20046;-66
2022/04/13 06:25:24;;;;;;;16.95;9.25;;;13.90;99.90;;;;;;5025535;28;20052;-67
2022/04/13 06:27:49;;;;;;;15.43;9.60;;;13.80;99.90;;;;;;5036232;28;20480;-66
2022/04/13 06:30:15;;;;;;;14.90;9.32;;;13.90;99.90;;;;;;5018641;28;20033;-68
2022/04/13 06:32:43;;;;;;;14.40;9.75;;;13.90;99.90;;;;;;5018653;28;20041;-68
2022/04/13 06:35:14;;;;;;;13.73;8.98;;;13.90;99.90;;;;;;5018635;28;20077;-69
2022/04/13 06:37:41;;;;;;;14.40;9.38;;;14.00;99.90;;;;;;5036480;28;20048;-68
2022/04/13 06:40:08;;;;;;;16.70;9.40;;;14.00;99.90;;;;;;5018145;28;20049;-68
2022/04/13 06:42:37;;;;;;;14.95;9.73;;;14.10;99.90;;;;;;5018539;28;20141;-68
2022/04/13 06:45:07;;;;;;;12.85;8.75;;;14.10;99.90;;;;;;5001924;28;20140;-68
2022/04/13 06:47:33;;;;;;;14.02;9.55;;;14.20;99.90;;;;;;5035863;28;20095;-68
2022/04/13 06:49:59;;;;;;;17.35;9.50;;;14.20;99.90;;;;;;5035414;28;20482;-68
2022/04/13 06:52:24;;;;;;;15.57;9.95;;;14.60;99.90;;;;;;5035773;28;20080;-68
2022/04/13 06:54:51;;;;;;;18.90;9.60;;;14.90;99.90;;;;;;5045249;28;20045;-68
2022/04/13 06:57:16;;;;;;;16.45;9.40;;;15.00;99.90;;;;;;5054140;28;20052;-67
2022/04/13 06:59:42;;;;;;;13.88;9.57;;;15.10;99.90;;;;;;5034805;28;20064;-68
2022/04/13 07:02:10;;;;;;;15.38;9.32;;;15.10;99.90;;;;;;5035043;28;20374;-68
2022/04/13 07:04:39;;;;;;;15.10;9.85;;;15.10;99.90;;;;;;5035504;28;20485;-68
2022/04/13 07:07:05;;;;;;;15.07;9.13;;;15.10;99.90;;;;;;5018037;28;20436;-69
2022/04/13 07:09:31;;;;;;;21.50;10.18;;;15.20;99.90;;;;;;5017862;28;20124;-68
2022/04/13 07:11:57;;;;;;;21.95;9.75;;;15.10;99.90;;;;;;5035150;28;20087;-68
2022/04/13 07:14:23;;;;;;;13.82;8.75;;;15.10;99.90;;;;;;5035807;28;20125;-68
2022/04/13 07:16:48;;;;;;;17.35;9.45;;;15.00;99.90;;;;;;5008727;28;20083;-68
2022/04/13 07:19:15;;;;;;;23.80;9.95;;;15.00;99.90;;;;;;5052596;28;20056;-68
2022/04/13 07:21:43;;;;;;;14.38;9.18;;;15.00;99.90;;;;;;5052362;28;20131;-68
2022/04/13 07:24:14;;;;;;;17.13;9.23;;;14.90;99.90;;;;;;5052864;28;20037;-67
2022/04/13 07:26:39;;;;;;;16.63;9.27;;;14.80;99.90;;;;;;5054827;28;20351;-67
2022/04/13 07:29:05;;;;;;;16.95;9.05;;;14.90;99.90;;;;;;5054048;28;20503;-68
2022/04/13 07:31:31;;;;;;;17.33;9.10;;;15.00;99.90;;;;;;5051793;28;20049;-68
2022/04/13 07:33:58;;;;;;;15.40;8.80;;;15.00;99.90;;;;;;5035130;28;20077;-67
2022/04/13 07:36:24;;;;;;;19.67;9.25;;;14.90;99.90;;;;;;5017696;28;20444;-68
2022/04/13 07:38:51;;;;;;;19.75;9.25;;;15.00;99.90;;;;;;5035124;28;20125;-67
2022/04/13 07:41:17;;;;;;;20.77;8.85;;;15.00;99.90;;;;;;5034804;28;20048;-68
2022/04/13 07:43:44;;;;;;;20.05;10.23;;;15.00;99.90;;;;;;5034332;28;20061;-68
2022/04/13 07:46:10;;;;;;;14.75;8.85;;;15.00;99.90;;;;;;5034819;28;20041;-67
2022/04/13 07:48:35;;;;;;;13.80;8.68;;;15.10;99.90;;;;;;5034956;28;20053;-68
2022/04/13 07:51:01;;;;;;;18.33;10.27;;;15.30;99.90;;;;;;5034460;28;20363;-68
2022/04/13 07:53:27;;;;;;;19.10;9.80;;;15.30;99.90;;;;;;5034442;28;20454;-68
2022/04/13 07:55:52;;;;;;;16.13;10.02;;;15.40;99.90;;;;;;5017290;28;20476;-68
2022/04/13 07:58:18;;;;;;;24.65;11.57;;;15.40;99.90;;;;;;5034690;28;20033;-68
2022/04/13 08:00:45;;;;;;;23.58;12.85;;;15.30;99.90;;;;;;5034769;28;20080;-67
2022/04/13 08:03:11;;;;;;;20.75;12.30;;;15.30;99.90;;;;;;5021958;28;20124;-68
2022/04/13 08:05:40;;;;;;;18.48;11.70;;;15.40;99.90;;;;;;5027506;28;20402;-67
2022/04/13 08:08:05;;;;;;;23.80;12.75;;;15.40;99.90;;;;;;5054481;28;20072;-68
2022/04/13 08:10:31;;;;;;;22.00;11.02;;;15.50;99.90;;;;;;5054113;28;20040;-68
2022/04/13 08:12:57;;;;;;;15.80;8.73;;;15.60;99.90;;;;;;5043069;28;20038;-67
2022/04/13 08:15:23;;;;;;;15.35;9.25;;;15.60;99.90;;;;;;5034188;28;20454;-67
2022/04/13 08:17:50;;;;;;;17.95;7.57;;;15.80;99.90;;;;;;5034101;28;20377;-68
2022/04/13 08:20:15;;;;;;;12.90;6.50;;;16.10;99.90;;;;;;5034018;28;20037;-67
2022/04/13 08:22:43;;;;;;;12.30;6.55;;;16.20;99.90;;;;;;5034306;28;20112;-68
2022/04/13 08:25:09;;;;;;;10.90;6.35;;;16.20;99.90;;;;;;5034452;28;20037;-68
2022/04/13 08:27:35;;;;;;;12.77;7.57;;;16.30;99.90;;;;;;5016708;28;20045;-68
2022/04/13 08:30:01;;;;;;;10.98;6.55;;;16.20;99.90;;;;;;5033912;28;20042;-68
2022/04/13 08:32:28;;;;;;;10.73;7.18;;;16.20;99.90;;;;;;5033866;28;20359;-68
2022/04/13 08:34:53;;;;;;;13.45;7.60;;;16.10;99.90;;;;;;5034250;28;20029;-67
2022/04/13 08:37:20;;;;;;;16.30;7.78;;;16.10;99.90;;;;;;5016639;28;20442;-68
2022/04/13 08:39:46;;;;;;;14.65;8.30;;;16.10;99.90;;;;;;5033875;28;20087;-68
2022/04/13 08:42:29;;;;;;;16.13;8.88;;;16.10;99.90;;;;;;5033936;28;20146;-67
2022/04/13 08:44:57;;;;;;;12.32;8.10;;;16.20;99.90;;;;;;5033798;28;20482;-67
2022/04/13 08:47:24;;;;;;;15.57;9.43;;;16.30;99.90;;;;;;5016661;28;20045;-68
2022/04/13 08:49:54;;;;;;;13.77;8.85;;;16.30;99.90;;;;;;5033719;28;20053;-68
2022/04/13 08:52:38;;;;;;;15.27;8.73;;;16.50;99.90;;;;;;4978224;28;20479;-67
2022/04/13 08:55:11;;;;;;;14.30;7.93;;;16.60;99.90;;;;;;4996432;28;20050;-69
2022/04/13 08:57:40;;;;;;;13.63;8.05;;;16.70;99.90;;;;;;4995738;28;20069;-66
2022/04/13 09:00:09;;;;;;;11.52;8.27;;;17.00;99.90;;;;;;5013977;28;20045;-67
2022/04/13 09:02:50;;;;;;;14.73;7.93;;;16.90;99.90;;;;;;5020948;28;20049;-66
2022/04/13 09:05:31;;;;;;;16.33;8.57;;;17.00;99.90;;;;;;5034023;28;20041;-67
2022/04/13 09:08:14;;;;;;;13.85;8.48;;;17.20;99.90;;;;;;5033863;28;20370;-67
2022/04/13 09:10:41;;;;;;;14.15;8.15;;;17.40;99.90;;;;;;5034156;28;20060;-66
2022/04/13 09:13:11;;;;;;;13.90;8.35;;;17.50;99.90;;;;;;5022151;28;20046;-67
2022/04/13 09:15:41;;;;;;;13.52;8.68;;;17.60;99.90;;;;;;5013914;28;20056;-68
2022/04/13 09:18:08;;;;;;;11.90;7.95;;;17.60;99.90;;;;;;5016696;28;20080;-67
2022/04/13 09:20:34;;;;;;;14.07;8.43;;;17.50;99.90;;;;;;5017667;28;20100;-67
2022/04/13 09:23:00;;;;;;;11.85;8.57;;;17.50;99.90;;;;;;5027872;28;20366;-69
2022/04/13 09:25:29;;;;;;;13.27;8.57;;;17.50;99.90;;;;;;5037273;28;20386;-68
2022/04/13 09:27:56;;;;;;;13.95;8.38;;;17.50;99.90;;;;;;5037777;28;20045;-67
2022/04/13 09:30:22;;;;;;;13.73;8.32;;;17.40;99.90;;;;;;5037255;28;20041;-67
2022/04/13 09:32:50;;;;;;;13.32;8.52;;;17.40;99.90;;;;;;5037052;28;20041;-67
2022/04/13 09:35:16;;;;;;;15.32;8.70;;;17.40;99.90;;;;;;5037327;28;20033;-67
2022/04/13 09:37:43;;;;;;;15.10;8.85;;;17.50;99.90;;;;;;5037544;28;20124;-68
2022/04/13 09:40:09;;;;;;;13.23;8.85;;;17.70;99.90;;;;;;5036917;28;20516;-67
2022/04/13 09:42:36;;;;;;;13.95;8.30;;;17.80;99.90;;;;;;5019469;28;20041;-67
2022/04/13 09:45:02;;;;;;;12.13;7.57;;;18.00;99.90;;;;;;5019608;28;20061;-67
2022/04/13 09:47:33;;;;;;;11.10;6.85;;;18.20;99.90;;;;;;5036780;28;20427;-67
2022/04/13 09:49:59;;;;;;;13.35;6.85;;;18.10;99.90;;;;;;5036956;28;20057;-67
2022/04/13 09:52:31;;;;;;;14.63;7.15;;;18.10;99.90;;;;;;4997172;28;20088;-67
2022/04/13 09:54:57;;;;;;;13.35;6.35;;;18.20;99.90;;;;;;5017440;28;20045;-67
2022/04/13 09:57:24;;;;;;;11.20;6.00;;;18.20;99.90;;;;;;5017328;28;20049;-66
2022/04/13 09:59:54;;;;;;;15.93;6.40;;;18.40;99.90;;;;;;5016846;28;20073;-66
2022/04/13 10:02:42;;;;;;;10.80;6.90;;;18.40;99.90;;;;;;5003831;28;20454;-67
2022/04/13 10:05:29;;;;;;;12.02;7.80;;;18.10;99.90;;;;;;5019651;28;20049;-66
2022/04/13 10:08:03;;;;;;;10.73;6.78;;;18.20;99.90;;;;;;5019438;28;20136;-67
2022/04/13 10:10:30;;;;;;;14.50;7.78;;;18.20;99.90;;;;;;5018858;28;20355;-68
2022/04/13 10:12:55;;;;;;;10.50;6.07;;;18.20;99.90;;;;;;5053803;28;20033;-66
2022/04/13 10:15:21;;;;;;;15.68;7.50;;;18.40;99.90;;;;;;5056533;28;20134;-66
2022/04/13 10:17:47;;;;;;;15.88;6.00;;;18.20;99.90;;;;;;5056081;28;20037;-67
2022/04/13 10:20:12;;;;;;;10.80;6.55;;;18.30;99.90;;;;;;5038556;28;20106;-67
2022/04/13 10:23:02;;;;;;;9.18;5.38;;;18.40;99.90;;;;;;5030713;28;20064;-66
2022/04/13 10:25:28;;;;;;;12.32;5.53;;;18.40;99.90;;;;;;5036678;28;20119;-66
2022/04/13 10:27:58;;;;;;;10.73;5.85;;;18.50;99.90;;;;;;5033530;28;20041;-67
2022/04/13 10:30:35;;;;;;;8.05;4.80;;;18.70;99.90;;;;;;5055199;28;20107;-67
2022/04/13 10:33:09;;;;;;;11.80;4.38;;;18.80;99.90;;;;;;5039751;28;20443;-68
2022/04/13 10:35:35;;;;;;;;;;;18.70;99.90;;;;;;5055442;28;20036;-66
2022/04/13 10:38:03;;;;;;;10.85;4.70;;;18.70;99.90;;;;;;5037311;28;19928;-67
2022/04/13 10:40:35;;;;;;;7.82;4.85;;;18.60;99.90;;;;;;5037404;28;20070;-66
2022/04/13 10:43:02;;;;;;;9.00;3.90;;;18.70;99.90;;;;;;5033999;28;20097;-67
2022/04/13 10:45:29;;;;;;;19.75;5.85;;;18.60;99.90;;;;;;5037561;28;20567;-67
2022/04/13 10:48:05;;;;;;;12.27;5.82;;;18.50;99.90;;;;;;5055574;28;20075;-66
2022/04/13 10:50:39;;;;;;;10.85;5.22;;;18.50;99.90;;;;;;5055193;28;20036;-67
2022/04/13 10:53:21;;;;;;;12.98;6.07;;;18.50;99.90;;;;;;5026773;28;20046;-67
2022/04/13 10:55:55;;;;;;;11.32;6.10;;;18.60;99.90;;;;;;5048943;28;20115;-68
2022/04/13 10:58:35;;;;;;;9.50;5.05;;;18.60;99.90;;;;;;5054278;28;20419;-68
2022/04/13 11:01:05;;;;;;;12.48;5.70;;;18.70;99.90;;;;;;5054101;28;20120;-68
2022/04/13 11:03:38;;;;;;;11.88;5.10;;;18.60;99.90;;;;;;5022078;28;20477;-68
2022/04/13 11:06:06;;;;;;;14.83;6.57;;;18.70;99.90;;;;;;5017469;28;20103;-67
2022/04/13 11:08:37;;;;;;;13.88;6.32;;;18.60;99.90;;;;;;5051355;28;20041;-68
2022/04/13 11:11:04;;;;;;;11.90;6.63;;;18.50;99.90;;;;;;5020480;28;20097;-68
2022/04/13 11:13:32;;;;;;;12.38;6.95;;;18.60;99.90;;;;;;5023531;28;20136;-68
2022/04/13 11:16:19;;;;;;;15.57;7.00;;;18.60;99.90;;;;;;5017798;28;20116;-67
2022/04/13 11:19:00;;;;;;;15.57;6.43;;;18.70;99.90;;;;;;5035327;28;20396;-67
2022/04/13 11:21:26;;;;;;;15.32;7.88;;;18.70;99.90;;;;;;5035073;28;20124;-68
2022/04/13 11:23:53;;;;;;;12.90;7.03;;;18.80;99.90;;;;;;5035225;28;20133;-67
2022/04/13 11:26:34;;;;;;;11.73;6.55;;;18.70;99.90;;;;;;5035379;28;20044;-67
2022/04/13 11:29:21;;;;;;;11.43;7.68;;;18.60;99.90;;;;;;5017850;28;20045;-68
2022/04/13 11:32:02;;;;;;;13.00;8.25;;;18.70;99.90;;;;;;5017246;28;20135;-68
2022/04/13 11:34:29;;;;;;;15.95;9.35;;;18.60;99.90;;;;;;5015312;28;20045;-68
2022/04/13 11:37:02;;;;;;;17.52;8.85;;;18.30;99.90;;;;;;5015616;28;20041;-68
2022/04/13 11:39:49;;;;;;;16.90;8.40;;;18.20;99.90;;;;;;4997077;28;20102;-67
2022/04/13 11:42:21;;;;;;;13.15;7.65;;;18.10;99.90;;;;;;5001568;28;20148;-67
2022/04/13 11:44:48;;;;;;;11.63;7.28;;;18.10;99.90;;;;;;5034485;28;20057;-67
2022/04/13 11:47:18;;;;;;;21.55;7.70;;;17.90;99.90;;;;;;5034804;28;20045;-68
2022/04/13 11:50:00;;;;;;;15.52;8.25;;;17.80;99.90;;;;;;5034681;28;20136;-67
2022/04/13 11:52:48;;;;;;;14.32;7.55;;;17.90;99.90;;;;;;5035002;28;20087;-67
2022/04/13 11:55:40;;;;;;;16.92;7.18;;;18.10;99.90;;;;;;5035119;28;20134;-67
2022/04/13 11:58:09;;;;;;;9.07;5.25;;;17.90;99.90;;;;;;5034932;28;20048;-67
2022/04/13 12:01:11;;;;;;;13.88;5.30;;;17.90;99.90;;;;;;5034345;28;20285;-67
2022/04/13 12:03:41;;;;;;;12.10;4.43;;;18.00;99.90;;;;;;4998968;28;20061;-68
2022/04/13 12:06:11;;;;;;;13.63;4.65;;;17.80;99.90;;;;;;4997350;28;20057;-68
2022/04/13 12:08:45;;;;;;;9.77;4.65;;;17.70;99.90;;;;;;5014590;28;20348;-67
2022/04/13 12:11:16;;;;;;;13.65;5.90;;;17.70;99.90;;;;;;5014556;28;20116;-67
2022/04/13 12:13:54;;;;;;;15.07;6.10;;;17.50;99.90;;;;;;5029208;28;20041;-67
2022/04/13 12:16:25;;;;;;;14.50;6.28;;;17.40;99.90;;;;;;5034246;28;20053;-67
2022/04/13 12:18:52;;;;;;;15.45;6.20;;;17.30;99.90;;;;;;5016761;28;20045;-67
2022/04/13 12:21:24;;;;;;;15.98;6.50;;;17.20;99.90;;;;;;5016189;28;20347;-67
2022/04/13 12:23:50;;;;;;;15.35;6.80;;;17.20;99.90;;;;;;5016787;28;20076;-67
2022/04/13 12:26:17;;;;;;;10.73;5.22;;;17.20;99.90;;;;;;5034211;28;20084;-67
2022/04/13 12:28:43;;;;;;;11.80;5.07;;;17.20;99.90;;;;;;5034254;28;20045;-67
2022/04/13 12:31:11;;;;;;;14.05;5.25;;;17.30;99.90;;;;;;5033464;28;20037;-68
2022/04/13 12:33:39;;;;;;;13.30;5.05;;;17.30;99.90;;;;;;5023678;28;20041;-67
2022/04/13 12:36:06;;;;;;;17.88;5.15;;;17.40;99.90;;;;;;5032888;28;20073;-68
2022/04/13 12:38:36;;;;;;;11.00;5.20;;;17.50;99.90;;;;;;5033938;28;20413;-67